sensor_id;sensor_type;location;lat;lon;timestamp;P1;durP1;ratioP1;P2;durP2;ratioP2
49556;SDS011;35462;45.048;7.666;2023-12-07T00:05:04;8.30;;;7.37;;
49556;SDS011;35462;45.048;7.666;2023-12-07T00:20:24;12.47;;;6.77;;
49556;SDS011;35462;45.048;7.666;2023-12-07T00:35:43;12.90;;;7.87;;
49556;SDS011;35462;45.048;7.666;2023-12-07T00:51:03;13.23;;;8.20;;
49556;SDS011;35462;45.048;7.666;2023-12-07T01:06:25;10.88;;;8.23;;
49556;SDS011;35462;45.048;7.666;2023-12-07T01:21:44;12.97;;;7.73;;
49556;SDS011;35462;45.048;7.666;2023-12-07T01:37:04;13.43;;;8.20;;
49556;SDS011;35462;45.048;7.666;2023-12-07T01:52:24;13.77;;;10.37;;
49556;SDS011;35462;45.048;7.666;2023-12-07T02:07:48;22.33;;;13.13;;
49556;SDS011;35462;45.048;7.666;2023-12-07T02:23:08;17.17;;;12.13;;
49556;SDS011;35462;45.048;7.666;2023-12-07T02:38:28;20.30;;;12.88;;
49556;SDS011;35462;45.048;7.666;2023-12-07T02:53:48;23.33;;;13.70;;
49556;SDS011;35462;45.048;7.666;2023-12-07T03:09:09;19.77;;;13.82;;
49556;SDS011;35462;45.048;7.666;2023-12-07T03:24:29;17.60;;;12.37;;
49556;SDS011;35462;45.048;7.666;2023-12-07T03:39:48;25.50;;;16.13;;
49556;SDS011;35462;45.048;7.666;2023-12-07T03:55:08;17.40;;;12.27;;
49556;SDS011;35462;45.048;7.666;2023-12-07T04:10:27;21.47;;;12.90;;
49556;SDS011;35462;45.048;7.666;2023-12-07T04:25:46;18.70;;;11.73;;
49556;SDS011;35462;45.048;7.666;2023-12-07T04:41:07;23.47;;;15.07;;
49556;SDS011;35462;45.048;7.666;2023-12-07T04:56:26;20.47;;;13.80;;
49556;SDS011;35462;45.048;7.666;2023-12-07T05:11:46;28.93;;;14.30;;
49556;SDS011;35462;45.048;7.666;2023-12-07T05:27:05;29.07;;;13.80;;
49556;SDS011;35462;45.048;7.666;2023-12-07T05:42:25;16.07;;;11.40;;
49556;SDS011;35462;45.048;7.666;2023-12-07T05:57:47;18.90;;;14.57;;
49556;SDS011;35462;45.048;7.666;2023-12-07T06:13:07;21.85;;;15.02;;
49556;SDS011;35462;45.048;7.666;2023-12-07T06:28:26;17.53;;;12.30;;
49556;SDS011;35462;45.048;7.666;2023-12-07T06:43:46;17.80;;;12.40;;
49556;SDS011;35462;45.048;7.666;2023-12-07T06:59:05;16.53;;;10.90;;
49556;SDS011;35462;45.048;7.666;2023-12-07T07:14:25;17.10;;;10.87;;
49556;SDS011;35462;45.048;7.666;2023-12-07T07:29:44;14.43;;;9.87;;
49556;SDS011;35462;45.048;7.666;2023-12-07T07:45:06;19.85;;;11.48;;
49556;SDS011;35462;45.048;7.666;2023-12-07T08:00:26;16.17;;;11.00;;
49556;SDS011;35462;45.048;7.666;2023-12-07T08:15:47;18.30;;;10.15;;
49556;SDS011;35462;45.048;7.666;2023-12-07T08:31:06;16.03;;;8.27;;
49556;SDS011;35462;45.048;7.666;2023-12-07T08:46:26;14.73;;;8.03;;
49556;SDS011;35462;45.048;7.666;2023-12-07T09:01:45;12.17;;;7.83;;
49556;SDS011;35462;45.048;7.666;2023-12-07T09:17:05;18.93;;;8.87;;
49556;SDS011;35462;45.048;7.666;2023-12-07T09:32:24;13.43;;;7.87;;
49556;SDS011;35462;45.048;7.666;2023-12-07T09:47:47;16.20;;;8.13;;
49556;SDS011;35462;45.048;7.666;2023-12-07T10:03:21;20.23;;;10.03;;
49556;SDS011;35462;45.048;7.666;2023-12-07T10:18:41;15.60;;;10.15;;
49556;SDS011;35462;45.048;7.666;2023-12-07T10:34:01;14.70;;;10.60;;
49556;SDS011;35462;45.048;7.666;2023-12-07T10:49:21;14.20;;;9.83;;
49556;SDS011;35462;45.048;7.666;2023-12-07T11:04:43;15.57;;;8.23;;
49556;SDS011;35462;45.048;7.666;2023-12-07T11:20:04;11.85;;;7.82;;
49556;SDS011;35462;45.048;7.666;2023-12-07T11:35:24;49.00;;;27.65;;
49556;SDS011;35462;45.048;7.666;2023-12-07T11:50:57;8.90;;;6.40;;
49556;SDS011;35462;45.048;7.666;2023-12-07T12:06:17;10.65;;;6.38;;
49556;SDS011;35462;45.048;7.666;2023-12-07T12:21:37;22.20;;;8.17;;
49556;SDS011;35462;45.048;7.666;2023-12-07T12:36:59;11.77;;;6.47;;
49556;SDS011;35462;45.048;7.666;2023-12-07T13:07:38;7.20;;;4.65;;
49556;SDS011;35462;45.048;7.666;2023-12-07T13:22:58;11.00;;;4.33;;
49556;SDS011;35462;45.048;7.666;2023-12-07T13:38:17;7.40;;;4.60;;
49556;SDS011;35462;45.048;7.666;2023-12-07T13:53:38;7.07;;;4.68;;
49556;SDS011;35462;45.048;7.666;2023-12-07T14:08:58;9.87;;;4.50;;
49556;SDS011;35462;45.048;7.666;2023-12-07T14:24:18;9.77;;;5.03;;
49556;SDS011;35462;45.048;7.666;2023-12-07T14:55:00;6.72;;;5.45;;
49556;SDS011;35462;45.048;7.666;2023-12-07T15:10:23;6.80;;;4.72;;
49556;SDS011;35462;45.048;7.666;2023-12-07T15:25:42;17.33;;;7.50;;
49556;SDS011;35462;45.048;7.666;2023-12-07T15:41:01;11.83;;;5.83;;
49556;SDS011;35462;45.048;7.666;2023-12-07T15:56:21;14.13;;;7.37;;
49556;SDS011;35462;45.048;7.666;2023-12-07T16:11:41;14.47;;;7.63;;
49556;SDS011;35462;45.048;7.666;2023-12-07T16:27:00;15.73;;;7.87;;
49556;SDS011;35462;45.048;7.666;2023-12-07T16:57:40;19.23;;;9.52;;
49556;SDS011;35462;45.048;7.666;2023-12-07T17:12:59;17.83;;;7.80;;
49556;SDS011;35462;45.048;7.666;2023-12-07T17:28:20;15.27;;;6.75;;
49556;SDS011;35462;45.048;7.666;2023-12-07T17:43:39;19.30;;;7.90;;
49556;SDS011;35462;45.048;7.666;2023-12-07T17:58:59;16.10;;;8.13;;
49556;SDS011;35462;45.048;7.666;2023-12-07T18:14:18;16.83;;;8.27;;
49556;SDS011;35462;45.048;7.666;2023-12-07T18:29:38;16.17;;;8.43;;
49556;SDS011;35462;45.048;7.666;2023-12-07T18:44:58;25.27;;;8.83;;
49556;SDS011;35462;45.048;7.666;2023-12-07T19:00:17;19.17;;;10.40;;
49556;SDS011;35462;45.048;7.666;2023-12-07T19:15:37;20.40;;;10.23;;
49556;SDS011;35462;45.048;7.666;2023-12-07T19:30:56;16.13;;;9.30;;
49556;SDS011;35462;45.048;7.666;2023-12-07T19:46:17;19.57;;;10.93;;
49556;SDS011;35462;45.048;7.666;2023-12-07T20:01:36;16.23;;;10.63;;
49556;SDS011;35462;45.048;7.666;2023-12-07T20:16:56;22.20;;;11.63;;
49556;SDS011;35462;45.048;7.666;2023-12-07T20:32:15;21.23;;;11.67;;
49556;SDS011;35462;45.048;7.666;2023-12-07T20:47:34;30.93;;;14.17;;
49556;SDS011;35462;45.048;7.666;2023-12-07T21:02:54;22.43;;;13.20;;
49556;SDS011;35462;45.048;7.666;2023-12-07T21:33:33;16.92;;;10.80;;
49556;SDS011;35462;45.048;7.666;2023-12-07T21:48:54;24.70;;;14.25;;
49556;SDS011;35462;45.048;7.666;2023-12-07T22:04:14;32.80;;;17.63;;
49556;SDS011;35462;45.048;7.666;2023-12-07T22:19:33;31.80;;;17.27;;
49556;SDS011;35462;45.048;7.666;2023-12-07T22:34:53;32.23;;;18.03;;
49556;SDS011;35462;45.048;7.666;2023-12-07T22:50:12;26.70;;;16.87;;
49556;SDS011;35462;45.048;7.666;2023-12-07T23:05:32;28.40;;;15.57;;
49556;SDS011;35462;45.048;7.666;2023-12-07T23:20:51;24.60;;;15.33;;
49556;SDS011;35462;45.048;7.666;2023-12-07T23:36:11;22.60;;;15.40;;
49556;SDS011;35462;45.048;7.666;2023-12-07T23:51:31;23.93;;;15.67;;
